Time,TemperatureF,DewpointF,PressureIn,WindDirection,WindDirectionDegrees,WindSpeedMPH,WindSpeedGustMPH,Humidity,HourlyPrecipIn,Conditions,Clouds,dailyrainin,SolarRadiationWatts/m^2,SoftwareType,DateUTC
2013-08-05 00:02:00,70.0,70.0,-100.00,ENE,75,1.0,7.0,99,0.00,,,0.50,0.000000,,2013-08-05 05:02:00,
2013-08-05 00:12:00,70.0,70.0,-100.00,ENE,75,1.0,7.0,99,0.00,,,0.50,0.000000,,2013-08-05 05:12:00,
2013-08-05 00:32:00,70.0,70.0,-100.00,NE,46,1.0,3.0,99,0.00,,,0.50,0.000000,,2013-08-05 05:32:00,
2013-08-05 00:43:00,70.0,70.0,-100.00,NE,46,1.0,3.0,99,0.00,,,0.50,0.000000,,2013-08-05 05:43:00,
2013-08-05 00:53:00,70.0,70.0,-100.00,NE,46,1.0,3.0,99,0.00,,,0.50,0.000000,,2013-08-05 05:53:00,
2013-08-05 01:02:00,70.0,70.0,-100.00,NE,46,1.0,3.0,99,0.00,,,0.50,0.000000,,2013-08-05 06:02:00,
2013-08-05 01:12:00,70.0,70.0,-100.00,NE,46,1.0,3.0,99,0.00,,,0.50,0.000000,,2013-08-05 06:12:00,
2013-08-05 01:32:00,70.0,70.0,-100.00,NE,54,3.0,5.0,99,0.01,,,0.51,0.000000,,2013-08-05 06:32:00,
2013-08-05 01:43:00,70.0,70.0,-100.00,NE,54,3.0,5.0,99,0.01,,,0.51,0.000000,,2013-08-05 06:43:00,
2013-08-05 01:52:00,70.0,70.0,-100.00,NE,54,3.0,5.0,99,0.01,,,0.51,0.000000,,2013-08-05 06:52:00,
2013-08-05 02:02:00,70.0,70.0,-100.00,NE,54,3.0,5.0,99,0.01,,,0.51,0.000000,,2013-08-05 07:02:00,
2013-08-05 02:12:00,70.0,70.0,-100.00,NE,54,3.0,5.0,99,0.01,,,0.51,0.000000,,2013-08-05 07:12:00,
2013-08-05 02:33:00,70.0,70.0,-100.00,East,90,2.0,5.0,99,0.00,,,0.51,0.000000,,2013-08-05 07:33:00,
2013-08-05 02:43:00,70.0,70.0,-100.00,East,90,2.0,5.0,99,0.00,,,0.51,0.000000,,2013-08-05 07:43:00,
2013-08-05 02:53:00,70.0,70.0,-100.00,East,90,2.0,5.0,99,0.00,,,0.51,0.000000,,2013-08-05 07:53:00,
2013-08-05 03:02:00,70.0,70.0,-100.00,East,90,2.0,5.0,99,0.00,,,0.51,0.000000,,2013-08-05 08:02:00,
2013-08-05 03:12:00,70.0,70.0,-100.00,East,90,2.0,5.0,99,0.00,,,0.51,0.000000,,2013-08-05 08:12:00,
2013-08-05 03:13:00,70.0,70.0,-100.00,ESE,103,3.0,6.0,99,0.01,,,0.52,0.000000,,2013-08-05 08:13:00,
2013-08-05 03:34:00,70.0,70.0,-100.00,ESE,103,3.0,6.0,99,0.01,,,0.52,0.000000,,2013-08-05 08:34:00,
2013-08-05 03:54:00,70.0,70.0,-100.00,ESE,103,3.0,6.0,99,0.01,,,0.52,0.000000,,2013-08-05 08:54:00,
2013-08-05 04:06:00,70.0,70.0,-100.00,ESE,103,3.0,6.0,99,0.01,,,0.52,0.000000,,2013-08-05 09:06:00,
2013-08-05 04:13:00,69.0,69.0,-100.00,SE,138,4.0,7.0,99,0.00,,,0.52,0.000000,,2013-08-05 09:13:00,
2013-08-05 04:42:00,69.0,69.0,-100.00,SE,138,4.0,7.0,99,0.00,,,0.52,0.000000,,2013-08-05 09:42:00,
2013-08-05 04:48:00,69.0,69.0,-100.00,SE,138,4.0,7.0,99,0.00,,,0.52,0.000000,,2013-08-05 09:48:00,
2013-08-05 04:53:00,69.0,69.0,-100.00,SE,138,4.0,7.0,99,0.00,,,0.52,0.000000,,2013-08-05 09:53:00,
2013-08-05 05:13:00,69.0,69.0,-100.00,ESE,115,4.0,9.0,99,0.04,,,0.56,0.000000,,2013-08-05 10:13:00,
2013-08-05 05:49:00,69.0,69.0,-100.00,ESE,115,4.0,9.0,99,0.04,,,0.56,0.000000,,2013-08-05 10:49:00,
2013-08-05 06:09:00,69.0,69.0,-100.00,ESE,115,4.0,9.0,99,0.04,,,0.56,0.000000,,2013-08-05 11:09:00,
2013-08-05 06:13:00,69.0,69.0,-100.00,SE,146,5.0,9.0,99,0.16,,,0.72,1.000000,,2013-08-05 11:13:00,
2013-08-05 06:38:00,69.0,69.0,-100.00,SE,146,5.0,9.0,99,0.16,,,0.72,1.000000,,2013-08-05 11:38:00,
2013-08-05 06:53:00,69.0,69.0,-100.00,SE,146,5.0,9.0,99,0.16,,,0.72,1.000000,,2013-08-05 11:53:00,
2013-08-05 07:13:00,69.0,69.0,-100.00,SSE,148,4.0,11.0,99,0.46,,,1.18,7.000000,,2013-08-05 12:13:00,
2013-08-05 07:34:00,69.0,69.0,-100.00,SSE,148,4.0,11.0,99,0.46,,,1.18,7.000000,,2013-08-05 12:34:00,
2013-08-05 07:52:00,69.0,69.0,-100.00,SSE,148,4.0,11.0,99,0.46,,,1.18,7.000000,,2013-08-05 12:52:00,
2013-08-05 08:01:00,69.0,69.0,-100.00,SSE,148,4.0,11.0,99,0.46,,,1.18,7.000000,,2013-08-05 13:01:00,
2013-08-05 08:39:00,69.0,69.0,-100.00,SSE,160,4.0,12.0,99,0.78,,,1.96,10.000000,,2013-08-05 13:39:00,
2013-08-05 08:47:00,69.0,69.0,-100.00,SSE,160,4.0,12.0,99,0.78,,,1.96,10.000000,,2013-08-05 13:47:00,
2013-08-05 08:54:00,69.0,69.0,-100.00,SSE,160,4.0,12.0,99,0.78,,,1.96,10.000000,,2013-08-05 13:54:00,
2013-08-05 09:05:00,69.0,69.0,-100.00,SSE,160,4.0,12.0,99,0.78,,,1.96,10.000000,,2013-08-05 14:05:00,
2013-08-05 09:13:00,69.0,69.0,-100.00,SE,141,4.0,9.0,99,0.00,,,1.96,66.000000,,2013-08-05 14:13:00,
2013-08-05 09:41:00,69.0,69.0,-100.00,SE,141,4.0,9.0,99,0.00,,,1.96,66.000000,,2013-08-05 14:41:00,
2013-08-05 09:49:00,69.0,69.0,-100.00,SE,141,4.0,9.0,99,0.00,,,1.96,66.000000,,2013-08-05 14:49:00,
2013-08-05 09:54:00,69.0,69.0,-100.00,SE,141,4.0,9.0,99,0.00,,,1.96,66.000000,,2013-08-05 14:54:00,
2013-08-05 10:07:00,69.0,69.0,-100.00,SE,141,4.0,9.0,99,0.00,,,1.96,66.000000,,2013-08-05 15:07:00,
2013-08-05 10:40:00,72.0,71.0,-100.00,SE,133,5.0,9.0,98,0.00,,,-99.99,362.000000,,2013-08-05 15:40:00,
2013-08-05 10:50:00,72.0,71.0,-100.00,SE,133,5.0,9.0,98,0.00,,,-99.99,362.000000,,2013-08-05 15:50:00,
2013-08-05 10:59:00,72.0,71.0,-100.00,SE,133,5.0,9.0,98,0.00,,,-99.99,362.000000,,2013-08-05 15:59:00,
2013-08-05 11:09:00,72.0,71.0,-100.00,SE,133,5.0,9.0,98,0.00,,,-99.99,362.000000,,2013-08-05 16:09:00,
2013-08-05 11:13:00,76.0,74.0,-100.00,SSE,156,4.0,9.0,92,0.00,,,1.96,380.000000,,2013-08-05 16:13:00,
2013-08-05 11:33:00,76.0,74.0,-100.00,SSE,156,4.0,9.0,92,0.00,,,1.96,380.000000,,2013-08-05 16:33:00,
2013-08-05 11:45:00,76.0,74.0,-100.00,SSE,156,4.0,9.0,92,0.00,,,1.96,380.000000,,2013-08-05 16:45:00,
2013-08-05 12:00:00,76.0,74.0,-100.00,SSE,156,4.0,9.0,92,0.00,,,1.96,380.000000,,2013-08-05 17:00:00,
2013-08-05 12:13:00,78.0,73.0,-100.00,SSE,161,5.0,10.0,86,0.00,,,1.67,441.000000,,2013-08-05 17:13:00,
2013-08-05 12:39:00,78.0,73.0,-100.00,SSE,161,5.0,10.0,86,0.00,,,1.67,441.000000,,2013-08-05 17:39:00,
2013-08-05 12:50:00,78.0,73.0,-100.00,SSE,161,5.0,10.0,86,0.00,,,1.67,441.000000,,2013-08-05 17:50:00,
2013-08-05 13:00:00,78.0,73.0,-100.00,SSE,161,5.0,10.0,86,0.00,,,1.67,441.000000,,2013-08-05 18:00:00,
2013-08-05 13:08:00,78.0,73.0,-100.00,SSE,161,5.0,10.0,86,0.00,,,1.67,441.000000,,2013-08-05 18:08:00,
2013-08-05 13:13:00,83.0,76.0,-100.00,South,175,3.0,10.0,80,0.00,,,1.57,694.000000,,2013-08-05 18:13:00,
2013-08-05 13:45:00,83.0,76.0,-100.00,South,175,3.0,10.0,80,0.00,,,1.57,694.000000,,2013-08-05 18:45:00,
2013-08-05 13:54:00,83.0,76.0,-100.00,South,175,3.0,10.0,80,0.00,,,1.57,694.000000,,2013-08-05 18:54:00,
2013-08-05 14:05:00,83.0,76.0,-100.00,South,175,3.0,10.0,80,0.00,,,1.57,694.000000,,2013-08-05 19:05:00,
2013-08-05 14:13:00,85.0,77.0,-100.00,SSE,156,3.0,8.0,77,0.00,,,1.51,635.000000,,2013-08-05 19:13:00,
2013-08-05 14:53:00,85.0,77.0,-100.00,SSE,156,3.0,8.0,77,0.00,,,1.51,635.000000,,2013-08-05 19:53:00,
2013-08-05 15:09:00,85.0,77.0,-100.00,SSE,156,3.0,8.0,77,0.00,,,1.51,635.000000,,2013-08-05 20:09:00,
2013-08-05 15:13:00,84.0,77.0,-100.00,ENE,74,5.0,9.0,79,0.00,,,1.48,491.000000,,2013-08-05 20:13:00,
2013-08-05 15:48:00,84.0,77.0,-100.00,ENE,74,5.0,9.0,79,0.00,,,1.48,491.000000,,2013-08-05 20:48:00,
2013-08-05 16:07:00,84.0,77.0,-100.00,ENE,74,5.0,9.0,79,0.00,,,1.48,491.000000,,2013-08-05 21:07:00,
2013-08-05 16:13:00,80.0,74.0,-100.00,NE,53,4.0,11.0,83,0.01,,,1.48,279.000000,,2013-08-05 21:13:00,
2013-08-05 16:48:00,80.0,74.0,-100.00,NE,53,4.0,11.0,83,0.01,,,1.48,279.000000,,2013-08-05 21:48:00,
2013-08-05 16:54:00,80.0,74.0,-100.00,NE,53,4.0,11.0,83,0.01,,,1.48,279.000000,,2013-08-05 21:54:00,
2013-08-05 17:05:00,80.0,74.0,-100.00,NE,53,4.0,11.0,83,0.01,,,1.48,279.000000,,2013-08-05 22:05:00,
2013-08-05 17:13:00,77.0,76.0,-100.00,South,187,3.0,11.0,97,0.08,,,1.56,64.000000,,2013-08-05 22:13:00,
2013-08-05 17:38:00,77.0,76.0,-100.00,South,187,3.0,11.0,97,0.08,,,1.56,64.000000,,2013-08-05 22:38:00,
2013-08-05 17:44:00,77.0,76.0,-100.00,South,187,3.0,11.0,97,0.08,,,1.56,64.000000,,2013-08-05 22:44:00,
2013-08-05 17:53:00,77.0,76.0,-100.00,South,187,3.0,11.0,97,0.08,,,1.56,64.000000,,2013-08-05 22:53:00,
2013-08-05 18:07:00,77.0,76.0,-100.00,South,187,3.0,11.0,97,0.08,,,1.56,64.000000,,2013-08-05 23:07:00,
2013-08-05 18:13:00,78.0,77.0,-100.00,SE,124,3.0,5.0,97,0.00,,,1.55,115.000000,,2013-08-05 23:13:00,
2013-08-05 18:33:00,78.0,77.0,-100.00,SE,124,3.0,5.0,97,0.00,,,1.55,115.000000,,2013-08-05 23:33:00,
2013-08-05 18:46:00,78.0,77.0,-100.00,SE,124,3.0,5.0,97,0.00,,,1.55,115.000000,,2013-08-05 23:46:00,
2013-08-05 19:02:00,78.0,77.0,-100.00,SE,124,3.0,5.0,97,0.00,,,1.55,115.000000,,2013-08-06 00:02:00,
2013-08-05 19:13:00,79.0,77.0,-100.00,ESE,106,2.0,8.0,93,0.00,,,1.55,242.000000,,2013-08-06 00:13:00,
2013-08-05 19:37:00,79.0,77.0,-100.00,ESE,106,2.0,8.0,93,0.00,,,1.55,242.000000,,2013-08-06 00:37:00,
2013-08-05 19:47:00,79.0,77.0,-100.00,ESE,106,2.0,8.0,93,0.00,,,1.55,242.000000,,2013-08-06 00:47:00,
2013-08-05 19:57:00,79.0,77.0,-100.00,ESE,106,2.0,8.0,93,0.00,,,1.55,242.000000,,2013-08-06 00:57:00,
2013-08-05 20:08:00,79.0,77.0,-100.00,ESE,106,2.0,8.0,93,0.00,,,1.55,242.000000,,2013-08-06 01:08:00,
2013-08-05 20:13:00,77.0,76.0,-100.00,SE,139,2.0,5.0,96,0.00,,,1.55,32.000000,,2013-08-06 01:13:00,
2013-08-05 20:43:00,77.0,76.0,-100.00,SE,139,2.0,5.0,96,0.00,,,1.55,32.000000,,2013-08-06 01:43:00,
2013-08-05 20:52:00,77.0,76.0,-100.00,SE,139,2.0,5.0,96,0.00,,,1.55,32.000000,,2013-08-06 01:52:00,
2013-08-05 21:08:00,77.0,76.0,-100.00,SE,139,2.0,5.0,96,0.00,,,1.55,32.000000,,2013-08-06 02:08:00,
2013-08-05 21:13:00,75.0,74.0,-100.00,South,169,2.0,4.0,98,0.00,,,1.55,0.000000,,2013-08-06 02:13:00,
2013-08-05 21:33:00,75.0,74.0,-100.00,South,169,2.0,4.0,98,0.00,,,1.55,0.000000,,2013-08-06 02:33:00,
2013-08-05 21:49:00,75.0,74.0,-100.00,South,169,2.0,4.0,98,0.00,,,1.55,0.000000,,2013-08-06 02:49:00,
2013-08-05 22:01:00,75.0,74.0,-100.00,South,169,2.0,4.0,98,0.00,,,1.55,0.000000,,2013-08-06 03:01:00,
2013-08-05 22:35:00,74.0,73.0,-100.00,South,174,2.0,4.0,97,0.00,,,1.55,0.000000,,2013-08-06 03:35:00,
2013-08-05 22:45:00,74.0,73.0,-100.00,South,174,2.0,4.0,97,0.00,,,1.55,0.000000,,2013-08-06 03:45:00,
2013-08-05 22:52:00,74.0,73.0,-100.00,South,174,2.0,4.0,97,0.00,,,1.55,0.000000,,2013-08-06 03:52:00,
2013-08-05 23:01:00,74.0,73.0,-100.00,South,174,2.0,4.0,97,0.00,,,1.55,0.000000,,2013-08-06 04:01:00,
2013-08-05 23:11:00,74.0,73.0,-100.00,South,174,2.0,4.0,97,0.00,,,1.55,0.000000,,2013-08-06 04:11:00,
2013-08-05 23:33:00,73.0,72.0,-100.00,SSE,159,3.0,5.0,98,0.00,,,1.55,0.000000,,2013-08-06 04:33:00,
2013-08-05 23:44:00,73.0,72.0,-100.00,SSE,159,3.0,5.0,98,0.00,,,1.55,0.000000,,2013-08-06 04:44:00,
2013-08-05 23:54:00,73.0,72.0,-100.00,SSE,159,3.0,5.0,98,0.00,,,1.55,0.000000,,2013-08-06 04:54:00,